sensor_id;sensor_type;location;lat;lon;timestamp;pressure;altitude;pressure_sealevel;temperature;humidity
48606;BME280;8482;54.396;18.590;2022-10-16T16:12:01;101602.41;;;16.34;82.63
48606;BME280;8482;54.396;18.590;2022-10-16T16:14:27;101612.25;;;16.33;82.67
48606;BME280;8482;54.396;18.590;2022-10-16T16:16:55;101613.50;;;16.29;82.86
48606;BME280;8482;54.396;18.590;2022-10-16T16:19:21;101616.31;;;16.28;82.88
48606;BME280;8482;54.396;18.590;2022-10-16T16:21:48;101628.72;;;16.29;82.88
48606;BME280;8482;54.396;18.590;2022-10-16T16:24:14;101632.53;;;16.26;83.08
48606;BME280;8482;54.396;18.590;2022-10-16T16:26:40;101637.19;;;16.24;83.10
48606;BME280;8482;54.396;18.590;2022-10-16T16:29:13;101643.63;;;16.21;83.11
48606;BME280;8482;54.396;18.590;2022-10-16T16:31:40;101651.81;;;16.20;82.95
48606;BME280;8482;54.396;18.590;2022-10-16T16:34:07;101653.06;;;16.16;83.12
48606;BME280;8482;54.396;18.590;2022-10-16T16:36:33;101655.16;;;16.12;83.04
48606;BME280;8482;54.396;18.590;2022-10-16T16:39:00;101660.78;;;16.09;83.07
48606;BME280;8482;54.396;18.590;2022-10-16T16:41:29;101669.94;;;16.06;83.37
48606;BME280;8482;54.396;18.590;2022-10-16T16:44:01;101666.78;;;16.01;83.05
48606;BME280;8482;54.396;18.590;2022-10-16T16:46:28;101669.06;;;15.96;83.37
48606;BME280;8482;54.396;18.590;2022-10-16T16:48:53;101674.50;;;15.94;83.52
48606;BME280;8482;54.396;18.590;2022-10-16T16:51:21;101671.56;;;15.88;83.68
48606;BME280;8482;54.396;18.590;2022-10-16T16:53:50;101674.50;;;15.85;83.85
48606;BME280;8482;54.396;18.590;2022-10-16T16:56:20;101679.84;;;15.85;83.92
48606;BME280;8482;54.396;18.590;2022-10-16T16:58:49;101670.50;;;15.79;83.93
48606;BME280;8482;54.396;18.590;2022-10-16T17:01:16;101681.19;;;15.79;83.95
48606;BME280;8482;54.396;18.590;2022-10-16T17:03:44;101687.91;;;15.73;84.13
48606;BME280;8482;54.396;18.590;2022-10-16T17:06:12;101687.06;;;15.73;84.42
48606;BME280;8482;54.396;18.590;2022-10-16T17:08:39;101691.56;;;15.72;84.55
48606;BME280;8482;54.396;18.590;2022-10-16T17:11:11;101698.16;;;15.68;85.03
48606;BME280;8482;54.396;18.590;2022-10-16T17:13:37;101701.66;;;15.69;84.73
48606;BME280;8482;54.396;18.590;2022-10-16T17:16:05;101704.47;;;15.67;84.87
48606;BME280;8482;54.396;18.590;2022-10-16T17:18:32;101704.00;;;15.62;85.10
48606;BME280;8482;54.396;18.590;2022-10-16T17:21:00;101700.50;;;15.61;84.90
48606;BME280;8482;54.396;18.590;2022-10-16T17:23:26;101715.13;;;15.57;84.82
48606;BME280;8482;54.396;18.590;2022-10-16T17:25:53;101708.34;;;15.53;84.71
48606;BME280;8482;54.396;18.590;2022-10-16T17:28:19;101712.25;;;15.49;84.85
48606;BME280;8482;54.396;18.590;2022-10-16T17:30:45;101723.19;;;15.46;84.71
48606;BME280;8482;54.396;18.590;2022-10-16T17:33:12;101721.75;;;15.42;84.89
48606;BME280;8482;54.396;18.590;2022-10-16T17:35:47;101729.09;;;15.40;84.96
48606;BME280;8482;54.396;18.590;2022-10-16T17:38:14;101730.31;;;15.36;85.00
48606;BME280;8482;54.396;18.590;2022-10-16T17:40:41;101741.13;;;15.34;85.09
48606;BME280;8482;54.396;18.590;2022-10-16T17:43:08;101745.88;;;15.30;85.34
48606;BME280;8482;54.396;18.590;2022-10-16T17:45:37;101741.50;;;15.29;85.27
48606;BME280;8482;54.396;18.590;2022-10-16T17:48:04;101743.59;;;15.26;85.43
48606;BME280;8482;54.396;18.590;2022-10-16T17:50:30;101744.69;;;15.23;85.74
48606;BME280;8482;54.396;18.590;2022-10-16T17:52:56;101755.97;;;15.27;85.71
48606;BME280;8482;54.396;18.590;2022-10-16T17:55:22;101754.41;;;15.24;85.93
48606;BME280;8482;54.396;18.590;2022-10-16T17:57:47;101761.56;;;15.24;85.89
48606;BME280;8482;54.396;18.590;2022-10-16T18:00:13;101771.28;;;15.25;85.94
48606;BME280;8482;54.396;18.590;2022-10-16T18:02:39;101775.91;;;15.23;85.86
48606;BME280;8482;54.396;18.590;2022-10-16T18:05:08;101775.91;;;15.23;86.16
48606;BME280;8482;54.396;18.590;2022-10-16T18:07:34;101775.06;;;15.22;86.37
48606;BME280;8482;54.396;18.590;2022-10-16T18:10:00;101782.25;;;15.22;86.10
48606;BME280;8482;54.396;18.590;2022-10-16T18:12:28;101782.38;;;15.20;86.25
48606;BME280;8482;54.396;18.590;2022-10-16T18:14:54;101790.53;;;15.19;86.26
48606;BME280;8482;54.396;18.590;2022-10-16T18:17:23;101780.06;;;15.15;85.89
48606;BME280;8482;54.396;18.590;2022-10-16T18:19:49;101791.88;;;15.13;85.89
48606;BME280;8482;54.396;18.590;2022-10-16T18:22:15;101793.81;;;15.11;85.96
48606;BME280;8482;54.396;18.590;2022-10-16T18:24:41;101787.00;;;15.07;86.05
48606;BME280;8482;54.396;18.590;2022-10-16T18:27:07;101797.94;;;15.04;85.86
48606;BME280;8482;54.396;18.590;2022-10-16T18:29:33;101798.91;;;15.02;86.11
48606;BME280;8482;54.396;18.590;2022-10-16T18:31:59;101798.31;;;14.99;86.01
48606;BME280;8482;54.396;18.590;2022-10-16T18:34:25;101810.59;;;15.01;86.27
48606;BME280;8482;54.396;18.590;2022-10-16T18:36:52;101817.75;;;15.01;86.51
48606;BME280;8482;54.396;18.590;2022-10-16T18:39:19;101804.41;;;15.01;86.77
48606;BME280;8482;54.396;18.590;2022-10-16T18:41:48;101804.41;;;15.01;86.78
48606;BME280;8482;54.396;18.590;2022-10-16T18:44:16;101815.22;;;14.99;87.14
48606;BME280;8482;54.396;18.590;2022-10-16T18:46:42;101824.81;;;15.02;87.07
48606;BME280;8482;54.396;18.590;2022-10-16T18:49:08;101829.19;;;15.03;87.34
48606;BME280;8482;54.396;18.590;2022-10-16T18:51:40;101828.44;;;15.01;87.53
48606;BME280;8482;54.396;18.590;2022-10-16T18:54:10;101828.31;;;15.02;87.42
48606;BME280;8482;54.396;18.590;2022-10-16T18:56:36;101835.50;;;15.02;87.46
48606;BME280;8482;54.396;18.590;2022-10-16T18:59:06;101835.34;;;15.04;87.67
48606;BME280;8482;54.396;18.590;2022-10-16T19:01:34;101833.44;;;14.94;87.40
48606;BME280;8482;54.396;18.590;2022-10-16T19:04:07;101858.44;;;15.05;87.58
48606;BME280;8482;54.396;18.590;2022-10-16T19:06:43;101856.72;;;15.04;87.69
48606;BME280;8482;54.396;18.590;2022-10-16T19:09:10;101850.56;;;15.03;87.68
48606;BME280;8482;54.396;18.590;2022-10-16T19:11:36;101855.66;;;15.06;87.66
48606;BME280;8482;54.396;18.590;2022-10-16T19:14:02;101861.72;;;15.08;87.69
48606;BME280;8482;54.396;18.590;2022-10-16T19:16:34;101866.06;;;15.09;87.41
48606;BME280;8482;54.396;18.590;2022-10-16T19:19:04;101874.00;;;15.11;87.37
48606;BME280;8482;54.396;18.590;2022-10-16T19:21:34;101861.72;;;15.08;87.57
48606;BME280;8482;54.396;18.590;2022-10-16T19:24:02;101864.13;;;15.11;87.39
48606;BME280;8482;54.396;18.590;2022-10-16T19:26:32;101876.53;;;15.12;87.54
48606;BME280;8482;54.396;18.590;2022-10-16T19:29:01;101874.81;;;15.11;87.43
48606;BME280;8482;54.396;18.590;2022-10-16T19:31:29;101874.81;;;15.11;87.33
48606;BME280;8482;54.396;18.590;2022-10-16T19:33:58;101877.63;;;15.10;87.28
48606;BME280;8482;54.396;18.590;2022-10-16T19:36:33;101865.84;;;15.01;87.12
48606;BME280;8482;54.396;18.590;2022-10-16T19:39:04;101878.97;;;15.04;87.01
48606;BME280;8482;54.396;18.590;2022-10-16T19:41:31;101887.72;;;15.06;87.02
48606;BME280;8482;54.396;18.590;2022-10-16T19:44:03;101896.56;;;15.07;86.87
48606;BME280;8482;54.396;18.590;2022-10-16T19:46:30;101884.41;;;15.02;87.23
48606;BME280;8482;54.396;18.590;2022-10-16T19:49:00;101896.94;;;15.02;86.72
48606;BME280;8482;54.396;18.590;2022-10-16T19:51:27;101892.56;;;15.01;86.98
48606;BME280;8482;54.396;18.590;2022-10-16T19:54:04;101896.34;;;14.98;86.93
48606;BME280;8482;54.396;18.590;2022-10-16T19:56:33;101893.19;;;14.93;86.83
48606;BME280;8482;54.396;18.590;2022-10-16T19:59:00;101908.84;;;14.98;86.94
48606;BME280;8482;54.396;18.590;2022-10-16T20:01:28;101917.00;;;14.96;86.50
48606;BME280;8482;54.396;18.590;2022-10-16T20:03:55;101921.59;;;14.94;86.50
48606;BME280;8482;54.396;18.590;2022-10-16T20:06:21;101905.44;;;14.84;86.69
48606;BME280;8482;54.396;18.590;2022-10-16T20:08:50;101923.78;;;14.89;86.76
48606;BME280;8482;54.396;18.590;2022-10-16T20:11:20;101916.75;;;14.88;86.68
48606;BME280;8482;54.396;18.590;2022-10-16T20:13:46;101923.06;;;14.87;86.78
48606;BME280;8482;54.396;18.590;2022-10-16T20:16:14;101927.44;;;14.88;86.69
48606;BME280;8482;54.396;18.590;2022-10-16T20:18:42;101929.38;;;14.86;86.64
48606;BME280;8482;54.396;18.590;2022-10-16T20:21:15;101926.81;;;14.84;86.74
48606;BME280;8482;54.396;18.590;2022-10-16T20:23:42;101938.22;;;14.86;86.74
48606;BME280;8482;54.396;18.590;2022-10-16T20:26:09;101927.69;;;14.85;86.56
48606;BME280;8482;54.396;18.590;2022-10-16T20:28:42;101939.44;;;14.82;86.51
48606;BME280;8482;54.396;18.590;2022-10-16T20:31:13;101939.56;;;14.81;86.43
48606;BME280;8482;54.396;18.590;2022-10-16T20:33:41;101943.09;;;14.81;86.07
48606;BME280;8482;54.396;18.590;2022-10-16T20:36:12;101946.75;;;14.80;86.18
48606;BME280;8482;54.396;18.590;2022-10-16T20:38:40;101944.16;;;14.79;86.31
48606;BME280;8482;54.396;18.590;2022-10-16T20:41:07;101949.28;;;14.82;86.20
48606;BME280;8482;54.396;18.590;2022-10-16T20:43:35;101944.16;;;14.79;86.02
48606;BME280;8482;54.396;18.590;2022-10-16T20:46:06;101948.44;;;14.81;86.01
48606;BME280;8482;54.396;18.590;2022-10-16T20:48:36;101949.50;;;14.79;85.84
48606;BME280;8482;54.396;18.590;2022-10-16T20:51:23;101950.75;;;14.75;85.52
48606;BME280;8482;54.396;18.590;2022-10-16T20:53:59;101967.38;;;14.78;85.68
48606;BME280;8482;54.396;18.590;2022-10-16T20:56:29;101962.13;;;14.77;85.60
48606;BME280;8482;54.396;18.590;2022-10-16T20:58:55;101970.03;;;14.78;85.66
48606;BME280;8482;54.396;18.590;2022-10-16T21:01:24;101964.94;;;14.75;85.39
48606;BME280;8482;54.396;18.590;2022-10-16T21:03:57;101978.91;;;14.79;85.41
48606;BME280;8482;54.396;18.590;2022-10-16T21:06:24;101975.38;;;14.78;85.45
48606;BME280;8482;54.396;18.590;2022-10-16T21:08:50;101963.91;;;14.65;85.33
48606;BME280;8482;54.396;18.590;2022-10-16T21:11:31;101985.19;;;14.78;84.91
48606;BME280;8482;54.396;18.590;2022-10-16T21:14:01;101982.06;;;14.73;84.88
48606;BME280;8482;54.396;18.590;2022-10-16T21:16:27;101997.94;;;14.74;84.80
48606;BME280;8482;54.396;18.590;2022-10-16T21:18:54;102011.31;;;14.74;84.60
48606;BME280;8482;54.396;18.590;2022-10-16T21:21:27;102004.25;;;14.73;84.38
48606;BME280;8482;54.396;18.590;2022-10-16T21:23:56;101988.38;;;14.71;84.46
48606;BME280;8482;54.396;18.590;2022-10-16T21:26:24;101995.41;;;14.73;84.72
48606;BME280;8482;54.396;18.590;2022-10-16T21:29:03;102004.88;;;14.77;84.51
48606;BME280;8482;54.396;18.590;2022-10-16T21:31:29;102001.50;;;14.75;84.15
48606;BME280;8482;54.396;18.590;2022-10-16T21:33:55;102013.97;;;14.74;84.10
48606;BME280;8482;54.396;18.590;2022-10-16T21:36:28;102016.53;;;14.76;84.15
48606;BME280;8482;54.396;18.590;2022-10-16T21:38:58;102030.50;;;14.79;83.90
48606;BME280;8482;54.396;18.590;2022-10-16T21:41:27;102031.34;;;14.80;83.93
48606;BME280;8482;54.396;18.590;2022-10-16T21:43:55;102027.09;;;14.77;83.66
48606;BME280;8482;54.396;18.590;2022-10-16T21:46:25;102043.59;;;14.82;83.56
48606;BME280;8482;54.396;18.590;2022-10-16T21:48:53;102032.66;;;14.74;83.63
48606;BME280;8482;54.396;18.590;2022-10-16T21:51:19;102040.22;;;14.80;83.42
48606;BME280;8482;54.396;18.590;2022-10-16T21:53:45;102039.97;;;14.83;83.33
48606;BME280;8482;54.396;18.590;2022-10-16T21:56:16;102052.50;;;14.83;83.32
48606;BME280;8482;54.396;18.590;2022-10-16T21:58:43;102054.19;;;14.84;83.03
48606;BME280;8482;54.396;18.590;2022-10-16T22:01:13;102059.41;;;14.85;82.96
48606;BME280;8482;54.396;18.590;2022-10-16T22:03:40;102065.63;;;14.86;82.91
48606;BME280;8482;54.396;18.590;2022-10-16T22:06:08;102056.25;;;14.80;82.79
48606;BME280;8482;54.396;18.590;2022-10-16T22:08:35;102068.16;;;14.88;82.75
48606;BME280;8482;54.396;18.590;2022-10-16T22:11:15;102071.06;;;14.84;82.66
48606;BME280;8482;54.396;18.590;2022-10-16T22:13:42;102077.28;;;14.85;82.53
48606;BME280;8482;54.396;18.590;2022-10-16T22:16:09;102082.72;;;14.83;82.10
48606;BME280;8482;54.396;18.590;2022-10-16T22:18:37;102084.78;;;14.80;82.11
48606;BME280;8482;54.396;18.590;2022-10-16T22:21:08;102079.44;;;14.80;82.46
48606;BME280;8482;54.396;18.590;2022-10-16T22:23:34;102078.94;;;14.75;82.26
48606;BME280;8482;54.396;18.590;2022-10-16T22:26:11;102089.63;;;14.75;82.18
48606;BME280;8482;54.396;18.590;2022-10-16T22:28:39;102093.13;;;14.75;82.02
48606;BME280;8482;54.396;18.590;2022-10-16T22:31:10;102112.81;;;14.74;81.92
48606;BME280;8482;54.396;18.590;2022-10-16T22:33:37;102118.50;;;14.69;82.17
48606;BME280;8482;54.396;18.590;2022-10-16T22:36:06;102125.75;;;14.67;82.11
48606;BME280;8482;54.396;18.590;2022-10-16T22:38:34;102124.38;;;14.62;81.92
48606;BME280;8482;54.396;18.590;2022-10-16T22:41:11;102121.81;;;14.60;82.15
48606;BME280;8482;54.396;18.590;2022-10-16T22:43:41;102113.91;;;14.59;82.35
48606;BME280;8482;54.396;18.590;2022-10-16T22:46:22;102111.25;;;14.59;82.05
48606;BME280;8482;54.396;18.590;2022-10-16T22:48:49;102105.50;;;14.52;82.11
48606;BME280;8482;54.396;18.590;2022-10-16T22:51:15;102112.53;;;14.53;82.30
48606;BME280;8482;54.396;18.590;2022-10-16T22:53:42;102121.53;;;14.52;82.02
48606;BME280;8482;54.396;18.590;2022-10-16T22:56:09;102131.25;;;14.53;82.11
48606;BME280;8482;54.396;18.590;2022-10-16T22:58:35;102125.28;;;14.49;81.92
48606;BME280;8482;54.396;18.590;2022-10-16T23:01:02;102132.66;;;14.46;81.89
48606;BME280;8482;54.396;18.590;2022-10-16T23:03:33;102124.34;;;14.37;81.23
48606;BME280;8482;54.396;18.590;2022-10-16T23:06:03;102131.13;;;14.30;81.14
48606;BME280;8482;54.396;18.590;2022-10-16T23:08:28;102137.63;;;14.26;81.14
48606;BME280;8482;54.396;18.590;2022-10-16T23:10:54;102132.97;;;14.17;81.28
48606;BME280;8482;54.396;18.590;2022-10-16T23:13:25;102130.97;;;14.07;81.03
48606;BME280;8482;54.396;18.590;2022-10-16T23:15:51;102131.53;;;14.00;80.93
48606;BME280;8482;54.396;18.590;2022-10-16T23:18:17;102142.53;;;13.95;81.26
48606;BME280;8482;54.396;18.590;2022-10-16T23:20:43;102141.25;;;13.88;81.35
48606;BME280;8482;54.396;18.590;2022-10-16T23:23:09;102141.69;;;13.82;81.22
48606;BME280;8482;54.396;18.590;2022-10-16T23:25:36;102143.81;;;13.76;81.19
48606;BME280;8482;54.396;18.590;2022-10-16T23:28:02;102152.34;;;13.69;81.38
48606;BME280;8482;54.396;18.590;2022-10-16T23:30:28;102153.63;;;13.63;81.63
48606;BME280;8482;54.396;18.590;2022-10-16T23:32:54;102144.47;;;13.54;81.27
48606;BME280;8482;54.396;18.590;2022-10-16T23:35:20;102154.50;;;13.51;81.47
48606;BME280;8482;54.396;18.590;2022-10-16T23:37:46;102158.75;;;13.40;81.47
48606;BME280;8482;54.396;18.590;2022-10-16T23:40:12;102163.63;;;13.33;81.58
48606;BME280;8482;54.396;18.590;2022-10-16T23:42:38;102178.00;;;13.31;81.84
48606;BME280;8482;54.396;18.590;2022-10-16T23:45:04;102178.31;;;13.26;82.27
48606;BME280;8482;54.396;18.590;2022-10-16T23:47:30;102179.56;;;13.21;82.28
48606;BME280;8482;54.396;18.590;2022-10-16T23:49:56;102180.00;;;13.14;82.26
48606;BME280;8482;54.396;18.590;2022-10-16T23:52:22;102177.53;;;13.11;81.81
48606;BME280;8482;54.396;18.590;2022-10-16T23:54:48;102184.03;;;13.07;82.15
48606;BME280;8482;54.396;18.590;2022-10-16T23:57:13;102184.44;;;13.01;82.08
48606;BME280;8482;54.396;18.590;2022-10-16T23:59:39;102183.03;;;12.95;82.16
